sensor_id;sensor_type;location;lat;lon;timestamp;P1;durP1;ratioP1;P2;durP2;ratioP2
84301;SDS011;74468;52.218;6.896;2024-02-21T00:00:51;20.25;;;9.85;;
84301;SDS011;74468;52.218;6.896;2024-02-21T00:03:17;26.15;;;10.45;;
84301;SDS011;74468;52.218;6.896;2024-02-21T00:05:42;26.50;;;10.27;;
84301;SDS011;74468;52.218;6.896;2024-02-21T00:08:08;18.63;;;9.38;;
84301;SDS011;74468;52.218;6.896;2024-02-21T00:10:33;21.63;;;9.75;;
84301;SDS011;74468;52.218;6.896;2024-02-21T00:13:00;21.33;;;8.13;;
84301;SDS011;74468;52.218;6.896;2024-02-21T00:15:25;21.65;;;9.77;;
84301;SDS011;74468;52.218;6.896;2024-02-21T00:17:51;28.38;;;10.32;;
84301;SDS011;74468;52.218;6.896;2024-02-21T00:20:16;27.30;;;9.15;;
84301;SDS011;74468;52.218;6.896;2024-02-21T00:22:42;22.20;;;10.25;;
84301;SDS011;74468;52.218;6.896;2024-02-21T00:25:08;22.77;;;10.48;;
84301;SDS011;74468;52.218;6.896;2024-02-21T00:27:33;25.90;;;9.77;;
84301;SDS011;74468;52.218;6.896;2024-02-21T00:29:59;22.63;;;9.55;;
84301;SDS011;74468;52.218;6.896;2024-02-21T00:32:24;22.15;;;9.15;;
84301;SDS011;74468;52.218;6.896;2024-02-21T00:34:49;22.70;;;10.15;;
84301;SDS011;74468;52.218;6.896;2024-02-21T00:37:15;22.15;;;9.95;;
84301;SDS011;74468;52.218;6.896;2024-02-21T00:39:40;22.05;;;9.27;;
84301;SDS011;74468;52.218;6.896;2024-02-21T00:42:07;18.92;;;10.45;;
84301;SDS011;74468;52.218;6.896;2024-02-21T00:44:32;19.45;;;8.68;;
84301;SDS011;74468;52.218;6.896;2024-02-21T00:46:58;18.55;;;8.80;;
84301;SDS011;74468;52.218;6.896;2024-02-21T00:49:23;18.60;;;8.23;;
84301;SDS011;74468;52.218;6.896;2024-02-21T00:51:48;20.02;;;9.00;;
84301;SDS011;74468;52.218;6.896;2024-02-21T00:54:14;24.05;;;9.20;;
84301;SDS011;74468;52.218;6.896;2024-02-21T00:56:39;22.13;;;9.43;;
84301;SDS011;74468;52.218;6.896;2024-02-21T00:59:05;21.05;;;9.20;;
84301;SDS011;74468;52.218;6.896;2024-02-21T01:01:30;19.17;;;8.75;;
84301;SDS011;74468;52.218;6.896;2024-02-21T01:03:55;17.95;;;8.25;;
84301;SDS011;74468;52.218;6.896;2024-02-21T01:06:21;20.42;;;8.70;;
84301;SDS011;74468;52.218;6.896;2024-02-21T01:08:47;21.77;;;9.88;;
84301;SDS011;74468;52.218;6.896;2024-02-21T01:11:13;17.88;;;8.70;;
84301;SDS011;74468;52.218;6.896;2024-02-21T01:13:38;22.83;;;10.35;;
84301;SDS011;74468;52.218;6.896;2024-02-21T01:16:04;22.67;;;9.23;;
84301;SDS011;74468;52.218;6.896;2024-02-21T01:18:31;21.95;;;10.60;;
84301;SDS011;74468;52.218;6.896;2024-02-21T01:20:56;18.88;;;9.25;;
84301;SDS011;74468;52.218;6.896;2024-02-21T01:23:22;26.55;;;10.80;;
84301;SDS011;74468;52.218;6.896;2024-02-21T01:25:47;17.02;;;8.50;;
84301;SDS011;74468;52.218;6.896;2024-02-21T01:28:12;22.88;;;8.70;;
84301;SDS011;74468;52.218;6.896;2024-02-21T01:30:38;18.77;;;8.80;;
84301;SDS011;74468;52.218;6.896;2024-02-21T01:33:03;22.17;;;8.35;;
84301;SDS011;74468;52.218;6.896;2024-02-21T01:35:28;22.13;;;8.90;;
84301;SDS011;74468;52.218;6.896;2024-02-21T01:37:54;23.55;;;8.68;;
84301;SDS011;74468;52.218;6.896;2024-02-21T01:40:19;25.05;;;9.07;;
84301;SDS011;74468;52.218;6.896;2024-02-21T01:42:45;20.92;;;8.07;;
84301;SDS011;74468;52.218;6.896;2024-02-21T01:45:11;17.95;;;8.27;;
84301;SDS011;74468;52.218;6.896;2024-02-21T01:47:36;24.17;;;9.32;;
84301;SDS011;74468;52.218;6.896;2024-02-21T01:50:02;22.98;;;8.00;;
84301;SDS011;74468;52.218;6.896;2024-02-21T01:52:28;21.10;;;10.25;;
84301;SDS011;74468;52.218;6.896;2024-02-21T01:54:54;20.17;;;9.95;;
84301;SDS011;74468;52.218;6.896;2024-02-21T01:57:20;23.20;;;10.52;;
84301;SDS011;74468;52.218;6.896;2024-02-21T01:59:45;25.05;;;9.95;;
84301;SDS011;74468;52.218;6.896;2024-02-21T02:02:11;17.38;;;9.07;;
84301;SDS011;74468;52.218;6.896;2024-02-21T02:04:38;21.67;;;9.93;;
84301;SDS011;74468;52.218;6.896;2024-02-21T02:07:03;21.02;;;8.02;;
84301;SDS011;74468;52.218;6.896;2024-02-21T02:09:30;25.45;;;9.18;;
84301;SDS011;74468;52.218;6.896;2024-02-21T02:11:55;26.08;;;11.35;;
84301;SDS011;74468;52.218;6.896;2024-02-21T02:14:23;15.25;;;8.73;;
84301;SDS011;74468;52.218;6.896;2024-02-21T02:16:48;20.52;;;10.88;;
84301;SDS011;74468;52.218;6.896;2024-02-21T02:19:14;25.15;;;9.35;;
84301;SDS011;74468;52.218;6.896;2024-02-21T02:21:42;22.60;;;10.95;;
84301;SDS011;74468;52.218;6.896;2024-02-21T02:24:11;19.33;;;9.05;;
84301;SDS011;74468;52.218;6.896;2024-02-21T02:26:37;20.15;;;9.27;;
84301;SDS011;74468;52.218;6.896;2024-02-21T02:29:02;20.25;;;8.48;;
84301;SDS011;74468;52.218;6.896;2024-02-21T02:31:27;21.08;;;9.43;;
84301;SDS011;74468;52.218;6.896;2024-02-21T02:33:53;17.85;;;8.27;;
84301;SDS011;74468;52.218;6.896;2024-02-21T02:36:18;43.38;;;9.23;;
84301;SDS011;74468;52.218;6.896;2024-02-21T02:38:44;16.02;;;8.48;;
84301;SDS011;74468;52.218;6.896;2024-02-21T02:41:10;19.48;;;9.07;;
84301;SDS011;74468;52.218;6.896;2024-02-21T02:43:35;18.15;;;9.13;;
84301;SDS011;74468;52.218;6.896;2024-02-21T02:46:01;16.05;;;8.45;;
84301;SDS011;74468;52.218;6.896;2024-02-21T02:48:27;18.88;;;8.00;;
84301;SDS011;74468;52.218;6.896;2024-02-21T02:50:53;20.73;;;8.90;;
84301;SDS011;74468;52.218;6.896;2024-02-21T02:53:18;21.65;;;10.45;;
84301;SDS011;74468;52.218;6.896;2024-02-21T02:55:43;18.95;;;10.02;;
84301;SDS011;74468;52.218;6.896;2024-02-21T02:58:09;23.85;;;9.40;;
84301;SDS011;74468;52.218;6.896;2024-02-21T03:00:34;19.48;;;8.43;;
84301;SDS011;74468;52.218;6.896;2024-02-21T03:03:01;20.67;;;8.45;;
84301;SDS011;74468;52.218;6.896;2024-02-21T03:05:30;21.38;;;9.30;;
84301;SDS011;74468;52.218;6.896;2024-02-21T03:07:55;18.35;;;8.45;;
84301;SDS011;74468;52.218;6.896;2024-02-21T03:10:20;18.42;;;8.50;;
84301;SDS011;74468;52.218;6.896;2024-02-21T03:12:46;23.30;;;11.68;;
84301;SDS011;74468;52.218;6.896;2024-02-21T03:15:11;24.67;;;9.50;;
84301;SDS011;74468;52.218;6.896;2024-02-21T03:17:37;20.05;;;8.15;;
84301;SDS011;74468;52.218;6.896;2024-02-21T03:20:03;21.77;;;8.38;;
84301;SDS011;74468;52.218;6.896;2024-02-21T03:22:35;21.02;;;10.40;;
84301;SDS011;74468;52.218;6.896;2024-02-21T03:25:01;18.23;;;9.30;;
84301;SDS011;74468;52.218;6.896;2024-02-21T03:27:27;25.10;;;9.95;;
84301;SDS011;74468;52.218;6.896;2024-02-21T03:29:52;21.65;;;8.45;;
84301;SDS011;74468;52.218;6.896;2024-02-21T03:32:17;21.50;;;10.77;;
84301;SDS011;74468;52.218;6.896;2024-02-21T03:34:43;31.35;;;9.25;;
84301;SDS011;74468;52.218;6.896;2024-02-21T03:37:08;22.23;;;10.57;;
84301;SDS011;74468;52.218;6.896;2024-02-21T03:39:34;21.88;;;8.43;;
84301;SDS011;74468;52.218;6.896;2024-02-21T03:41:59;18.83;;;8.43;;
84301;SDS011;74468;52.218;6.896;2024-02-21T03:44:30;18.85;;;9.23;;
84301;SDS011;74468;52.218;6.896;2024-02-21T03:49:21;21.95;;;8.55;;
84301;SDS011;74468;52.218;6.896;2024-02-21T03:51:47;19.75;;;9.05;;
84301;SDS011;74468;52.218;6.896;2024-02-21T03:54:12;20.25;;;10.48;;
84301;SDS011;74468;52.218;6.896;2024-02-21T03:56:38;16.77;;;8.88;;
84301;SDS011;74468;52.218;6.896;2024-02-21T03:59:09;20.45;;;9.05;;
84301;SDS011;74468;52.218;6.896;2024-02-21T04:01:35;20.23;;;9.35;;
84301;SDS011;74468;52.218;6.896;2024-02-21T04:04:00;19.60;;;9.85;;
84301;SDS011;74468;52.218;6.896;2024-02-21T04:06:26;17.92;;;8.32;;
84301;SDS011;74468;52.218;6.896;2024-02-21T04:08:51;32.13;;;9.95;;
84301;SDS011;74468;52.218;6.896;2024-02-21T04:11:17;22.85;;;9.38;;
84301;SDS011;74468;52.218;6.896;2024-02-21T04:13:43;18.98;;;9.68;;
84301;SDS011;74468;52.218;6.896;2024-02-21T04:16:09;18.85;;;9.57;;
84301;SDS011;74468;52.218;6.896;2024-02-21T04:18:35;21.92;;;9.43;;
84301;SDS011;74468;52.218;6.896;2024-02-21T04:21:00;29.35;;;10.10;;
84301;SDS011;74468;52.218;6.896;2024-02-21T04:23:25;16.73;;;8.63;;
84301;SDS011;74468;52.218;6.896;2024-02-21T04:25:51;21.17;;;9.27;;
84301;SDS011;74468;52.218;6.896;2024-02-21T04:28:17;17.40;;;8.30;;
84301;SDS011;74468;52.218;6.896;2024-02-21T04:30:42;19.85;;;9.35;;
84301;SDS011;74468;52.218;6.896;2024-02-21T04:33:08;19.70;;;9.02;;
84301;SDS011;74468;52.218;6.896;2024-02-21T04:35:33;19.35;;;9.05;;
84301;SDS011;74468;52.218;6.896;2024-02-21T04:37:59;19.60;;;8.95;;
84301;SDS011;74468;52.218;6.896;2024-02-21T04:40:24;17.50;;;8.68;;
84301;SDS011;74468;52.218;6.896;2024-02-21T04:42:49;24.73;;;9.25;;
84301;SDS011;74468;52.218;6.896;2024-02-21T04:45:15;23.13;;;9.70;;
84301;SDS011;74468;52.218;6.896;2024-02-21T04:47:40;21.85;;;9.15;;
84301;SDS011;74468;52.218;6.896;2024-02-21T04:50:06;28.17;;;9.48;;
84301;SDS011;74468;52.218;6.896;2024-02-21T04:52:31;22.08;;;9.18;;
84301;SDS011;74468;52.218;6.896;2024-02-21T04:54:56;17.73;;;9.18;;
84301;SDS011;74468;52.218;6.896;2024-02-21T04:57:22;23.13;;;8.85;;
84301;SDS011;74468;52.218;6.896;2024-02-21T04:59:47;21.10;;;10.20;;
84301;SDS011;74468;52.218;6.896;2024-02-21T05:02:13;18.38;;;8.10;;
84301;SDS011;74468;52.218;6.896;2024-02-21T05:04:39;21.45;;;8.93;;
84301;SDS011;74468;52.218;6.896;2024-02-21T05:07:06;22.77;;;8.95;;
84301;SDS011;74468;52.218;6.896;2024-02-21T05:09:31;18.75;;;8.93;;
84301;SDS011;74468;52.218;6.896;2024-02-21T05:11:57;19.58;;;8.48;;
84301;SDS011;74468;52.218;6.896;2024-02-21T05:14:24;19.38;;;7.78;;
84301;SDS011;74468;52.218;6.896;2024-02-21T05:16:49;17.83;;;7.72;;
84301;SDS011;74468;52.218;6.896;2024-02-21T05:19:15;20.05;;;7.68;;
84301;SDS011;74468;52.218;6.896;2024-02-21T05:21:40;23.90;;;10.40;;
84301;SDS011;74468;52.218;6.896;2024-02-21T05:24:05;15.68;;;6.93;;
84301;SDS011;74468;52.218;6.896;2024-02-21T05:26:31;16.45;;;8.80;;
84301;SDS011;74468;52.218;6.896;2024-02-21T05:28:57;13.32;;;6.93;;
84301;SDS011;74468;52.218;6.896;2024-02-21T05:31:24;22.05;;;8.60;;
84301;SDS011;74468;52.218;6.896;2024-02-21T05:33:49;18.02;;;7.75;;
84301;SDS011;74468;52.218;6.896;2024-02-21T05:36:14;21.27;;;6.68;;
84301;SDS011;74468;52.218;6.896;2024-02-21T05:38:40;15.32;;;7.50;;
84301;SDS011;74468;52.218;6.896;2024-02-21T05:41:05;15.73;;;6.47;;
84301;SDS011;74468;52.218;6.896;2024-02-21T05:43:31;14.07;;;6.68;;
84301;SDS011;74468;52.218;6.896;2024-02-21T05:45:56;16.65;;;6.97;;
84301;SDS011;74468;52.218;6.896;2024-02-21T05:48:22;13.27;;;7.35;;
84301;SDS011;74468;52.218;6.896;2024-02-21T05:50:48;19.75;;;7.72;;
84301;SDS011;74468;52.218;6.896;2024-02-21T05:53:13;15.27;;;6.80;;
84301;SDS011;74468;52.218;6.896;2024-02-21T05:55:39;16.63;;;7.20;;
84301;SDS011;74468;52.218;6.896;2024-02-21T05:58:04;17.02;;;6.13;;
84301;SDS011;74468;52.218;6.896;2024-02-21T06:00:31;15.10;;;6.47;;
84301;SDS011;74468;52.218;6.896;2024-02-21T06:02:56;13.93;;;6.80;;
84301;SDS011;74468;52.218;6.896;2024-02-21T06:05:22;13.98;;;7.00;;
84301;SDS011;74468;52.218;6.896;2024-02-21T06:07:47;12.60;;;6.28;;
84301;SDS011;74468;52.218;6.896;2024-02-21T06:10:12;20.15;;;5.97;;
84301;SDS011;74468;52.218;6.896;2024-02-21T06:12:38;10.82;;;5.07;;
84301;SDS011;74468;52.218;6.896;2024-02-21T06:15:03;17.77;;;6.43;;
84301;SDS011;74468;52.218;6.896;2024-02-21T06:17:29;13.95;;;6.45;;
84301;SDS011;74468;52.218;6.896;2024-02-21T06:19:54;12.38;;;6.25;;
84301;SDS011;74468;52.218;6.896;2024-02-21T06:22:20;17.63;;;7.18;;
84301;SDS011;74468;52.218;6.896;2024-02-21T06:24:45;15.52;;;5.38;;
84301;SDS011;74468;52.218;6.896;2024-02-21T06:27:11;13.07;;;5.68;;
84301;SDS011;74468;52.218;6.896;2024-02-21T06:29:36;15.38;;;7.07;;
84301;SDS011;74468;52.218;6.896;2024-02-21T06:32:02;12.80;;;6.55;;
84301;SDS011;74468;52.218;6.896;2024-02-21T06:34:27;13.10;;;6.45;;
84301;SDS011;74468;52.218;6.896;2024-02-21T06:36:53;11.73;;;5.47;;
84301;SDS011;74468;52.218;6.896;2024-02-21T06:39:18;14.85;;;6.25;;
84301;SDS011;74468;52.218;6.896;2024-02-21T06:41:44;16.73;;;6.65;;
84301;SDS011;74468;52.218;6.896;2024-02-21T06:44:09;11.80;;;5.93;;
84301;SDS011;74468;52.218;6.896;2024-02-21T06:46:35;14.98;;;5.93;;
84301;SDS011;74468;52.218;6.896;2024-02-21T06:49:00;16.27;;;6.82;;
84301;SDS011;74468;52.218;6.896;2024-02-21T06:51:27;10.40;;;5.35;;
84301;SDS011;74468;52.218;6.896;2024-02-21T06:53:53;11.40;;;7.30;;
84301;SDS011;74468;52.218;6.896;2024-02-21T06:56:18;10.73;;;6.22;;
84301;SDS011;74468;52.218;6.896;2024-02-21T06:58:44;18.38;;;6.97;;
84301;SDS011;74468;52.218;6.896;2024-02-21T07:01:09;15.05;;;7.72;;
84301;SDS011;74468;52.218;6.896;2024-02-21T07:03:35;17.35;;;5.22;;
84301;SDS011;74468;52.218;6.896;2024-02-21T07:06:00;16.58;;;6.40;;
84301;SDS011;74468;52.218;6.896;2024-02-21T07:08:26;15.10;;;6.43;;
84301;SDS011;74468;52.218;6.896;2024-02-21T07:10:51;13.57;;;6.75;;
84301;SDS011;74468;52.218;6.896;2024-02-21T07:13:16;15.32;;;6.75;;
84301;SDS011;74468;52.218;6.896;2024-02-21T07:15:42;11.88;;;5.78;;
84301;SDS011;74468;52.218;6.896;2024-02-21T07:18:08;15.05;;;6.55;;
84301;SDS011;74468;52.218;6.896;2024-02-21T07:20:33;17.13;;;9.18;;
84301;SDS011;74468;52.218;6.896;2024-02-21T07:22:59;17.25;;;8.30;;
84301;SDS011;74468;52.218;6.896;2024-02-21T07:25:24;15.25;;;7.15;;
84301;SDS011;74468;52.218;6.896;2024-02-21T07:27:50;18.25;;;7.70;;
84301;SDS011;74468;52.218;6.896;2024-02-21T07:30:15;19.42;;;7.50;;
84301;SDS011;74468;52.218;6.896;2024-02-21T07:32:41;14.93;;;6.97;;
84301;SDS011;74468;52.218;6.896;2024-02-21T07:35:06;20.52;;;8.25;;
84301;SDS011;74468;52.218;6.896;2024-02-21T07:37:35;15.20;;;7.28;;
84301;SDS011;74468;52.218;6.896;2024-02-21T07:40:02;13.15;;;7.32;;
84301;SDS011;74468;52.218;6.896;2024-02-21T07:42:27;16.92;;;6.65;;
84301;SDS011;74468;52.218;6.896;2024-02-21T07:44:53;17.17;;;7.22;;
84301;SDS011;74468;52.218;6.896;2024-02-21T07:47:18;14.43;;;6.10;;
84301;SDS011;74468;52.218;6.896;2024-02-21T07:49:44;13.73;;;6.90;;
84301;SDS011;74468;52.218;6.896;2024-02-21T07:52:10;18.10;;;7.20;;
84301;SDS011;74468;52.218;6.896;2024-02-21T07:54:36;15.70;;;6.53;;
84301;SDS011;74468;52.218;6.896;2024-02-21T07:57:01;13.55;;;7.60;;
84301;SDS011;74468;52.218;6.896;2024-02-21T07:59:27;13.80;;;5.32;;
84301;SDS011;74468;52.218;6.896;2024-02-21T08:01:57;9.80;;;6.00;;
84301;SDS011;74468;52.218;6.896;2024-02-21T08:04:23;12.55;;;5.43;;
84301;SDS011;74468;52.218;6.896;2024-02-21T08:06:54;13.95;;;6.68;;
84301;SDS011;74468;52.218;6.896;2024-02-21T08:09:21;11.98;;;5.75;;
84301;SDS011;74468;52.218;6.896;2024-02-21T08:11:47;18.77;;;6.25;;
84301;SDS011;74468;52.218;6.896;2024-02-21T08:14:12;15.95;;;6.10;;
84301;SDS011;74468;52.218;6.896;2024-02-21T08:16:41;10.90;;;5.68;;
84301;SDS011;74468;52.218;6.896;2024-02-21T08:19:06;13.25;;;5.15;;
84301;SDS011;74468;52.218;6.896;2024-02-21T08:21:32;18.33;;;5.80;;
84301;SDS011;74468;52.218;6.896;2024-02-21T08:23:57;12.07;;;5.50;;
84301;SDS011;74468;52.218;6.896;2024-02-21T08:26:22;9.02;;;4.68;;
84301;SDS011;74468;52.218;6.896;2024-02-21T08:28:48;13.38;;;6.13;;
84301;SDS011;74468;52.218;6.896;2024-02-21T08:31:20;16.10;;;5.65;;
84301;SDS011;74468;52.218;6.896;2024-02-21T08:33:45;9.98;;;5.13;;
84301;SDS011;74468;52.218;6.896;2024-02-21T08:36:20;11.45;;;5.85;;
84301;SDS011;74468;52.218;6.896;2024-02-21T08:38:45;14.27;;;5.35;;
84301;SDS011;74468;52.218;6.896;2024-02-21T08:41:11;17.83;;;5.45;;
84301;SDS011;74468;52.218;6.896;2024-02-21T08:43:37;12.02;;;5.85;;
84301;SDS011;74468;52.218;6.896;2024-02-21T08:46:03;10.38;;;5.13;;
84301;SDS011;74468;52.218;6.896;2024-02-21T08:48:28;11.70;;;4.93;;
84301;SDS011;74468;52.218;6.896;2024-02-21T08:50:54;13.73;;;6.60;;
84301;SDS011;74468;52.218;6.896;2024-02-21T08:53:19;11.95;;;4.80;;
84301;SDS011;74468;52.218;6.896;2024-02-21T08:55:45;11.95;;;5.78;;
84301;SDS011;74468;52.218;6.896;2024-02-21T08:58:12;9.65;;;5.72;;
84301;SDS011;74468;52.218;6.896;2024-02-21T09:00:37;11.23;;;5.22;;
84301;SDS011;74468;52.218;6.896;2024-02-21T09:03:02;11.95;;;5.78;;
84301;SDS011;74468;52.218;6.896;2024-02-21T09:05:28;12.18;;;5.22;;
84301;SDS011;74468;52.218;6.896;2024-02-21T09:07:54;7.38;;;4.60;;
84301;SDS011;74468;52.218;6.896;2024-02-21T09:10:20;12.82;;;5.13;;
84301;SDS011;74468;52.218;6.896;2024-02-21T09:12:45;7.13;;;4.57;;
84301;SDS011;74468;52.218;6.896;2024-02-21T09:15:11;12.38;;;4.97;;
84301;SDS011;74468;52.218;6.896;2024-02-21T09:17:36;16.13;;;5.22;;
84301;SDS011;74468;52.218;6.896;2024-02-21T09:20:01;9.48;;;5.50;;
84301;SDS011;74468;52.218;6.896;2024-02-21T09:22:28;15.90;;;5.97;;
84301;SDS011;74468;52.218;6.896;2024-02-21T09:24:54;11.18;;;5.20;;
84301;SDS011;74468;52.218;6.896;2024-02-21T09:27:19;12.25;;;5.05;;
84301;SDS011;74468;52.218;6.896;2024-02-21T09:29:45;15.73;;;4.72;;
84301;SDS011;74468;52.218;6.896;2024-02-21T09:32:10;10.70;;;4.68;;
84301;SDS011;74468;52.218;6.896;2024-02-21T09:34:35;10.10;;;5.47;;
84301;SDS011;74468;52.218;6.896;2024-02-21T09:37:01;15.80;;;6.00;;
84301;SDS011;74468;52.218;6.896;2024-02-21T09:39:26;15.93;;;5.20;;
84301;SDS011;74468;52.218;6.896;2024-02-21T09:41:53;8.30;;;4.32;;
84301;SDS011;74468;52.218;6.896;2024-02-21T09:44:24;11.00;;;5.40;;
84301;SDS011;74468;52.218;6.896;2024-02-21T09:46:52;12.00;;;6.22;;
84301;SDS011;74468;52.218;6.896;2024-02-21T09:49:39;11.85;;;6.45;;
84301;SDS011;74468;52.218;6.896;2024-02-21T09:52:06;13.63;;;5.88;;
84301;SDS011;74468;52.218;6.896;2024-02-21T09:54:32;12.80;;;6.00;;
84301;SDS011;74468;52.218;6.896;2024-02-21T09:57:01;12.73;;;5.60;;
84301;SDS011;74468;52.218;6.896;2024-02-21T09:59:31;8.63;;;3.95;;
84301;SDS011;74468;52.218;6.896;2024-02-21T10:01:57;11.65;;;5.05;;
84301;SDS011;74468;52.218;6.896;2024-02-21T10:04:25;11.60;;;4.75;;
84301;SDS011;74468;52.218;6.896;2024-02-21T10:06:51;10.70;;;4.53;;
84301;SDS011;74468;52.218;6.896;2024-02-21T10:09:20;9.88;;;5.57;;
84301;SDS011;74468;52.218;6.896;2024-02-21T10:11:47;8.20;;;5.85;;
84301;SDS011;74468;52.218;6.896;2024-02-21T10:14:13;10.73;;;4.57;;
84301;SDS011;74468;52.218;6.896;2024-02-21T10:16:40;5.88;;;4.03;;
84301;SDS011;74468;52.218;6.896;2024-02-21T10:19:06;8.05;;;4.10;;
84301;SDS011;74468;52.218;6.896;2024-02-21T10:21:31;13.10;;;5.30;;
84301;SDS011;74468;52.218;6.896;2024-02-21T10:23:56;6.93;;;4.53;;
84301;SDS011;74468;52.218;6.896;2024-02-21T10:26:22;9.13;;;4.88;;
84301;SDS011;74468;52.218;6.896;2024-02-21T10:28:47;10.98;;;4.57;;
84301;SDS011;74468;52.218;6.896;2024-02-21T10:31:26;5.72;;;3.17;;
84301;SDS011;74468;52.218;6.896;2024-02-21T10:34:02;7.63;;;3.58;;
84301;SDS011;74468;52.218;6.896;2024-02-21T10:36:28;11.07;;;4.43;;
84301;SDS011;74468;52.218;6.896;2024-02-21T10:38:53;8.07;;;4.35;;
84301;SDS011;74468;52.218;6.896;2024-02-21T10:41:19;9.48;;;4.50;;
84301;SDS011;74468;52.218;6.896;2024-02-21T10:43:55;9.10;;;5.15;;
84301;SDS011;74468;52.218;6.896;2024-02-21T10:46:24;7.38;;;5.05;;
84301;SDS011;74468;52.218;6.896;2024-02-21T10:48:59;8.43;;;4.20;;
84301;SDS011;74468;52.218;6.896;2024-02-21T10:51:32;7.28;;;4.80;;
84301;SDS011;74468;52.218;6.896;2024-02-21T10:56:32;8.10;;;4.78;;
84301;SDS011;74468;52.218;6.896;2024-02-21T10:59:02;8.82;;;3.92;;
84301;SDS011;74468;52.218;6.896;2024-02-21T11:01:28;10.77;;;5.40;;
84301;SDS011;74468;52.218;6.896;2024-02-21T11:03:56;11.75;;;4.85;;
84301;SDS011;74468;52.218;6.896;2024-02-21T11:06:23;6.80;;;3.63;;
84301;SDS011;74468;52.218;6.896;2024-02-21T11:11:44;8.32;;;3.95;;
84301;SDS011;74468;52.218;6.896;2024-02-21T11:14:10;10.27;;;5.50;;
84301;SDS011;74468;52.218;6.896;2024-02-21T11:16:39;6.25;;;3.50;;
84301;SDS011;74468;52.218;6.896;2024-02-21T11:19:07;5.97;;;3.40;;
84301;SDS011;74468;52.218;6.896;2024-02-21T11:21:33;6.43;;;2.90;;
84301;SDS011;74468;52.218;6.896;2024-02-21T11:24:00;7.97;;;4.53;;
84301;SDS011;74468;52.218;6.896;2024-02-21T11:26:27;6.88;;;4.22;;
84301;SDS011;74468;52.218;6.896;2024-02-21T11:31:22;5.60;;;2.92;;
84301;SDS011;74468;52.218;6.896;2024-02-21T11:33:48;7.15;;;3.38;;
84301;SDS011;74468;52.218;6.896;2024-02-21T11:36:26;8.95;;;3.60;;
84301;SDS011;74468;52.218;6.896;2024-02-21T11:38:52;6.00;;;3.25;;
84301;SDS011;74468;52.218;6.896;2024-02-21T11:41:18;6.93;;;2.92;;
84301;SDS011;74468;52.218;6.896;2024-02-21T11:43:44;4.90;;;2.70;;
84301;SDS011;74468;52.218;6.896;2024-02-21T11:46:09;8.23;;;3.65;;
84301;SDS011;74468;52.218;6.896;2024-02-21T11:48:34;6.43;;;3.90;;
84301;SDS011;74468;52.218;6.896;2024-02-21T11:51:00;8.15;;;4.25;;
84301;SDS011;74468;52.218;6.896;2024-02-21T11:53:26;5.63;;;3.45;;
84301;SDS011;74468;52.218;6.896;2024-02-21T11:55:55;6.07;;;3.75;;
84301;SDS011;74468;52.218;6.896;2024-02-21T11:58:21;9.15;;;4.15;;
84301;SDS011;74468;52.218;6.896;2024-02-21T12:00:47;6.03;;;3.90;;
84301;SDS011;74468;52.218;6.896;2024-02-21T12:03:13;9.98;;;4.20;;
84301;SDS011;74468;52.218;6.896;2024-02-21T12:05:38;5.90;;;3.58;;
84301;SDS011;74468;52.218;6.896;2024-02-21T12:08:04;7.55;;;3.92;;
84301;SDS011;74468;52.218;6.896;2024-02-21T12:10:29;8.40;;;4.03;;
84301;SDS011;74468;52.218;6.896;2024-02-21T12:13:10;8.85;;;4.10;;
84301;SDS011;74468;52.218;6.896;2024-02-21T12:15:38;7.43;;;3.88;;
84301;SDS011;74468;52.218;6.896;2024-02-21T12:18:03;6.75;;;4.40;;
84301;SDS011;74468;52.218;6.896;2024-02-21T12:20:29;12.77;;;3.92;;
84301;SDS011;74468;52.218;6.896;2024-02-21T12:22:56;6.82;;;4.22;;
84301;SDS011;74468;52.218;6.896;2024-02-21T12:25:23;10.07;;;4.63;;
84301;SDS011;74468;52.218;6.896;2024-02-21T12:27:51;8.82;;;3.97;;
84301;SDS011;74468;52.218;6.896;2024-02-21T12:30:17;7.07;;;3.63;;
84301;SDS011;74468;52.218;6.896;2024-02-21T12:32:42;12.82;;;4.35;;
84301;SDS011;74468;52.218;6.896;2024-02-21T12:35:08;8.68;;;5.70;;
84301;SDS011;74468;52.218;6.896;2024-02-21T12:37:33;7.78;;;4.10;;
84301;SDS011;74468;52.218;6.896;2024-02-21T12:39:59;8.23;;;3.80;;
84301;SDS011;74468;52.218;6.896;2024-02-21T12:42:25;7.72;;;3.40;;
84301;SDS011;74468;52.218;6.896;2024-02-21T12:44:51;9.20;;;3.55;;
84301;SDS011;74468;52.218;6.896;2024-02-21T12:47:19;6.93;;;3.83;;
84301;SDS011;74468;52.218;6.896;2024-02-21T12:49:48;6.30;;;3.42;;
84301;SDS011;74468;52.218;6.896;2024-02-21T12:52:14;5.32;;;3.17;;
84301;SDS011;74468;52.218;6.896;2024-02-21T12:54:39;7.63;;;4.25;;
84301;SDS011;74468;52.218;6.896;2024-02-21T12:57:04;12.10;;;3.88;;
84301;SDS011;74468;52.218;6.896;2024-02-21T12:59:30;4.95;;;2.75;;
84301;SDS011;74468;52.218;6.896;2024-02-21T13:01:56;10.57;;;3.90;;
84301;SDS011;74468;52.218;6.896;2024-02-21T13:04:21;8.45;;;4.22;;
84301;SDS011;74468;52.218;6.896;2024-02-21T13:06:47;6.72;;;3.85;;
84301;SDS011;74468;52.218;6.896;2024-02-21T13:09:13;11.35;;;3.75;;
84301;SDS011;74468;52.218;6.896;2024-02-21T13:11:38;11.07;;;3.45;;
84301;SDS011;74468;52.218;6.896;2024-02-21T13:14:05;8.43;;;3.88;;
84301;SDS011;74468;52.218;6.896;2024-02-21T13:16:31;7.97;;;3.50;;
84301;SDS011;74468;52.218;6.896;2024-02-21T13:18:56;5.03;;;2.50;;
84301;SDS011;74468;52.218;6.896;2024-02-21T13:21:22;9.13;;;3.58;;
84301;SDS011;74468;52.218;6.896;2024-02-21T13:23:47;12.20;;;3.67;;
84301;SDS011;74468;52.218;6.896;2024-02-21T13:26:13;7.07;;;4.40;;
84301;SDS011;74468;52.218;6.896;2024-02-21T13:28:39;6.45;;;3.60;;
84301;SDS011;74468;52.218;6.896;2024-02-21T13:31:04;9.73;;;3.95;;
84301;SDS011;74468;52.218;6.896;2024-02-21T13:33:29;13.25;;;3.63;;
84301;SDS011;74468;52.218;6.896;2024-02-21T13:35:55;10.63;;;3.13;;
84301;SDS011;74468;52.218;6.896;2024-02-21T13:38:20;6.47;;;3.35;;
84301;SDS011;74468;52.218;6.896;2024-02-21T13:40:46;9.02;;;3.75;;
84301;SDS011;74468;52.218;6.896;2024-02-21T13:43:11;13.13;;;3.80;;
84301;SDS011;74468;52.218;6.896;2024-02-21T13:45:37;7.03;;;3.45;;
84301;SDS011;74468;52.218;6.896;2024-02-21T13:48:02;8.65;;;3.30;;
84301;SDS011;74468;52.218;6.896;2024-02-21T13:50:31;9.02;;;4.28;;
84301;SDS011;74468;52.218;6.896;2024-02-21T13:52:56;13.18;;;4.35;;
84301;SDS011;74468;52.218;6.896;2024-02-21T13:55:22;9.02;;;3.50;;
84301;SDS011;74468;52.218;6.896;2024-02-21T13:57:51;7.30;;;4.00;;
84301;SDS011;74468;52.218;6.896;2024-02-21T14:00:16;6.65;;;3.70;;
84301;SDS011;74468;52.218;6.896;2024-02-21T14:02:43;7.97;;;3.75;;
84301;SDS011;74468;52.218;6.896;2024-02-21T14:05:09;11.88;;;4.70;;
84301;SDS011;74468;52.218;6.896;2024-02-21T14:07:34;10.50;;;3.97;;
84301;SDS011;74468;52.218;6.896;2024-02-21T14:10:00;13.98;;;4.13;;
84301;SDS011;74468;52.218;6.896;2024-02-21T14:12:25;8.30;;;3.00;;
84301;SDS011;74468;52.218;6.896;2024-02-21T14:14:51;10.52;;;4.10;;
84301;SDS011;74468;52.218;6.896;2024-02-21T14:17:17;8.73;;;3.38;;
84301;SDS011;74468;52.218;6.896;2024-02-21T14:19:42;8.60;;;3.67;;
84301;SDS011;74468;52.218;6.896;2024-02-21T14:22:08;15.88;;;3.72;;
84301;SDS011;74468;52.218;6.896;2024-02-21T14:24:33;10.40;;;3.40;;
84301;SDS011;74468;52.218;6.896;2024-02-21T14:26:59;6.85;;;3.08;;
84301;SDS011;74468;52.218;6.896;2024-02-21T14:29:25;7.05;;;3.60;;
84301;SDS011;74468;52.218;6.896;2024-02-21T14:31:50;7.53;;;3.55;;
84301;SDS011;74468;52.218;6.896;2024-02-21T14:34:15;8.63;;;3.65;;
84301;SDS011;74468;52.218;6.896;2024-02-21T14:36:41;7.82;;;3.53;;
84301;SDS011;74468;52.218;6.896;2024-02-21T14:39:06;7.35;;;3.60;;